createdAt,value
2023-01-15T00:07:51.111Z,99305.03
2023-01-15T00:17:54.154Z,99301.47
2023-01-15T00:28:00.938Z,99329.78
2023-01-15T00:38:04.670Z,99339.69
2023-01-15T00:48:09.437Z,99355.41
2023-01-15T00:58:12.345Z,99356.41
2023-01-15T01:08:17.490Z,99352.16
2023-01-15T01:18:20.497Z,99360.56
2023-01-15T01:28:25.272Z,99362.25
2023-01-15T01:38:28.443Z,99369.19
2023-01-15T01:48:35.181Z,99350.28
2023-01-15T01:58:39.043Z,99363.81
2023-01-15T02:08:44.262Z,99350.25
2023-01-15T02:18:57.302Z,99332.69
2023-01-15T02:29:03.664Z,99339.56
2023-01-15T02:39:12.352Z,99330.59
2023-01-15T02:49:21.045Z,99317.00
2023-01-15T02:59:30.491Z,99305.41
2023-01-15T03:09:36.433Z,99319.69
2023-01-15T03:19:46.543Z,99335.16
2023-01-15T03:29:59.819Z,99340.97
2023-01-15T03:40:04.152Z,99352.94
2023-01-15T03:50:17.761Z,99338.47
2023-01-15T04:00:26.348Z,99313.38
2023-01-15T04:10:34.627Z,99308.41
2023-01-15T04:20:40.290Z,99291.53
2023-01-15T04:30:45.274Z,99294.38
2023-01-15T04:41:06.228Z,99308.44
2023-01-15T04:51:10.774Z,99305.13
2023-01-15T05:01:15.635Z,99301.00
2023-01-15T05:11:20.284Z,99313.41
2023-01-15T05:21:25.326Z,99325.63
2023-01-15T05:31:30.778Z,99335.06
2023-01-15T05:41:53.483Z,99326.50
2023-01-15T05:52:00.451Z,99347.44
2023-01-15T06:02:03.818Z,99352.81
2023-01-15T06:12:08.526Z,99380.22
2023-01-15T06:22:11.514Z,99376.38
2023-01-15T06:32:16.275Z,99391.44
2023-01-15T06:42:36.548Z,99366.34
2023-01-15T06:52:40.747Z,99395.94
2023-01-15T07:02:43.806Z,99402.97
2023-01-15T07:12:52.491Z,99419.16
2023-01-15T07:22:55.597Z,99403.44
2023-01-15T07:33:00.429Z,99425.19
2023-01-15T07:43:21.074Z,99423.41
2023-01-15T07:53:25.931Z,99430.34
2023-01-15T08:03:28.886Z,99443.91
2023-01-15T08:13:51.066Z,99456.47
2023-01-15T08:23:54.229Z,99480.34
2023-01-15T08:33:58.701Z,99495.59
2023-01-15T08:44:01.717Z,99497.72
2023-01-15T08:54:05.922Z,99506.28
2023-01-15T09:04:08.994Z,99499.53
2023-01-15T09:14:58.656Z,99512.09
2023-01-15T09:24:37.996Z,99510.56
2023-01-15T09:34:42.475Z,99509.19
2023-01-15T09:45:10.271Z,99502.16
2023-01-15T09:55:19.207Z,99506.78
2023-01-15T10:05:26.329Z,99505.75
2023-01-15T10:15:37.503Z,99514.13
2023-01-15T10:25:48.599Z,99523.97
2023-01-15T10:35:59.074Z,99564.13
2023-01-15T10:46:05.047Z,99572.53
2023-01-15T10:56:15.328Z,99549.03
2023-01-15T11:06:21.079Z,99551.38
2023-01-15T11:16:45.538Z,99547.56
2023-01-15T11:26:51.644Z,99549.81
2023-01-15T11:37:06.884Z,99543.34
2023-01-15T11:47:31.163Z,99543.81
2023-01-15T11:57:39.331Z,99536.78
2023-01-15T12:07:42.556Z,99518.06
2023-01-15T12:18:00.834Z,99506.78
2023-01-15T12:28:08.229Z,99470.78
2023-01-15T12:38:19.673Z,99488.97
2023-01-15T12:48:31.061Z,99484.56
2023-01-15T12:58:42.365Z,99487.81
2023-01-15T13:08:56.658Z,99479.56
2023-01-15T13:19:18.306Z,99501.09
2023-01-15T13:29:31.223Z,99496.91
2023-01-15T13:39:43.405Z,99513.75
2023-01-15T13:49:52.035Z,99533.78
2023-01-15T13:59:56.367Z,99514.28
2023-01-15T14:10:10.030Z,99535.19
2023-01-15T14:20:37.582Z,99547.66
2023-01-15T14:31:03.820Z,99565.13
2023-01-15T14:41:08.996Z,99568.53
2023-01-15T14:51:14.936Z,99580.06
2023-01-15T15:01:40.471Z,99580.19
2023-01-15T15:12:09.520Z,99590.38
2023-01-15T15:22:17.888Z,99599.00
2023-01-15T15:32:24.209Z,99585.63
2023-01-15T15:42:51.415Z,99585.41
2023-01-15T15:52:55.570Z,99589.19
2023-01-15T16:03:05.144Z,99589.56
2023-01-15T16:13:11.540Z,99588.72
2023-01-15T16:23:24.227Z,99592.50
2023-01-15T16:33:28.280Z,99596.34
2023-01-15T16:43:33.368Z,99583.94
2023-01-15T16:53:41.069Z,99576.50
2023-01-15T17:03:45.576Z,99569.69
2023-01-15T17:13:48.830Z,99574.69
2023-01-15T17:23:53.456Z,99568.66
2023-01-15T17:33:57.519Z,99570.56
2023-01-15T17:44:01.935Z,99575.69
2023-01-15T17:54:05.635Z,99561.31
2023-01-15T18:04:35.052Z,99568.13
2023-01-15T18:14:38.467Z,99568.97
2023-01-15T18:24:43.765Z,99569.38
2023-01-15T18:34:46.808Z,99568.66
2023-01-15T18:45:09.096Z,99580.00
2023-01-15T18:55:12.207Z,99573.28
2023-01-15T19:05:17.431Z,99567.56
2023-01-15T19:15:38.745Z,99547.41
2023-01-15T19:25:45.445Z,99545.44
2023-01-15T19:35:48.364Z,99526.66
2023-01-15T19:46:10.285Z,99527.78
2023-01-15T19:56:13.285Z,99511.41
2023-01-15T20:06:17.849Z,99490.91
2023-01-15T20:16:22.981Z,99480.31
2023-01-15T20:26:27.813Z,99461.38
2023-01-15T20:36:35.170Z,99429.72
2023-01-15T20:46:39.730Z,99401.66
2023-01-15T20:56:42.661Z,99389.91
2023-01-15T21:06:48.593Z,99368.53
2023-01-15T21:16:52.703Z,99345.16
2023-01-15T21:26:57.413Z,99331.56
2023-01-15T21:37:01.013Z,99318.59
2023-01-15T21:47:08.047Z,99304.19
2023-01-15T21:57:12.146Z,99284.72
2023-01-15T22:07:16.935Z,99261.84
2023-01-15T22:17:19.865Z,99261.09
2023-01-15T22:27:24.329Z,99254.91
2023-01-15T22:37:27.845Z,99244.19
2023-01-15T22:47:32.844Z,99229.88
2023-01-15T22:57:37.226Z,99218.66
2023-01-15T23:07:42.767Z,99200.31
2023-01-15T23:17:45.973Z,99181.25
2023-01-15T23:27:50.630Z,99154.19
2023-01-15T23:37:53.468Z,99133.28
2023-01-15T23:47:58.023Z,99131.03
2023-01-15T23:58:01.343Z,99113.97
